createdAt,value
2022-09-06T00:04:35.769Z,16.10
2022-09-06T00:09:37.474Z,16.00
2022-09-06T00:14:41.250Z,16.00
2022-09-06T00:19:42.900Z,15.91
2022-09-06T00:24:44.791Z,15.84
2022-09-06T00:29:48.146Z,15.70
2022-09-06T00:34:49.841Z,15.64
2022-09-06T00:39:52.014Z,15.59
2022-09-06T00:44:55.301Z,15.68
2022-09-06T00:50:00.230Z,15.61
2022-09-06T00:55:02.774Z,15.57
2022-09-06T01:00:08.758Z,15.53
2022-09-06T01:05:12.141Z,15.47
2022-09-06T01:10:30.632Z,15.47
2022-09-06T01:15:54.821Z,15.41
2022-09-06T01:21:12.571Z,15.29
2022-09-06T01:26:42.352Z,15.28
2022-09-06T01:31:51.015Z,15.29
2022-09-06T01:37:09.532Z,15.23
2022-09-06T01:42:15.934Z,15.07
2022-09-06T01:47:29.757Z,15.26
2022-09-06T01:52:35.885Z,15.26
2022-09-06T01:57:50.542Z,15.13
2022-09-06T02:03:06.513Z,15.21
2022-09-06T02:08:12.887Z,15.09
2022-09-06T02:13:17.109Z,15.11
2022-09-06T02:18:24.949Z,14.98
2022-09-06T02:23:38.452Z,14.92
2022-09-06T02:28:40.801Z,14.86
2022-09-06T02:33:46.544Z,14.68
2022-09-06T02:38:48.812Z,14.66
2022-09-06T02:43:50.841Z,14.60
2022-09-06T02:48:54.259Z,14.53
2022-09-06T02:53:56.353Z,14.41
2022-09-06T02:58:58.359Z,14.42
2022-09-06T03:04:02.229Z,14.43
2022-09-06T03:09:04.323Z,14.38
2022-09-06T03:14:06.005Z,14.22
2022-09-06T03:19:09.320Z,14.25
2022-09-06T03:24:11.336Z,14.24
2022-09-06T03:29:13.383Z,14.27
2022-09-06T03:34:16.617Z,14.21
2022-09-06T03:39:18.669Z,14.24
2022-09-06T03:44:20.865Z,14.13
2022-09-06T03:49:24.178Z,14.19
2022-09-06T03:54:26.008Z,14.13
2022-09-06T03:59:27.745Z,14.24
2022-09-06T04:04:30.723Z,14.14
2022-09-06T04:09:32.558Z,14.08
2022-09-06T04:14:34.244Z,14.14
2022-09-06T04:19:37.927Z,14.02
2022-09-06T04:24:40.096Z,13.96
2022-09-06T04:29:42.069Z,13.97
2022-09-06T04:34:45.115Z,13.99
2022-09-06T04:39:46.977Z,13.96
2022-09-06T04:44:49.219Z,14.06
2022-09-06T04:49:52.568Z,14.13
2022-09-06T04:54:54.295Z,14.19
2022-09-06T04:59:55.974Z,14.25
2022-09-06T05:04:59.390Z,14.27
2022-09-06T05:10:01.400Z,14.25
2022-09-06T05:15:03.726Z,14.31
2022-09-06T05:20:08.604Z,14.47
2022-09-06T05:25:11.085Z,14.68
2022-09-06T05:30:14.133Z,15.13
2022-09-06T05:35:17.726Z,15.08
2022-09-06T05:40:19.685Z,15.24
2022-09-06T05:45:25.198Z,15.71
2022-09-06T05:50:28.711Z,15.96
2022-09-06T05:55:30.411Z,16.18
2022-09-06T06:00:32.418Z,16.53
2022-09-06T06:05:35.482Z,16.30
2022-09-06T06:10:38.736Z,16.21
2022-09-06T06:15:40.823Z,16.37
2022-09-06T06:20:44.408Z,16.40
2022-09-06T06:25:46.472Z,16.48
2022-09-06T06:30:48.168Z,16.70
2022-09-06T06:36:03.099Z,16.63
2022-09-06T06:41:07.321Z,16.76
2022-09-06T06:46:11.191Z,17.01
2022-09-06T06:51:16.606Z,17.13
2022-09-06T06:56:20.455Z,17.51
2022-09-06T07:01:23.893Z,17.67
2022-09-06T07:11:50.672Z,17.82
2022-09-06T07:16:52.370Z,17.81
2022-09-06T07:21:56.017Z,17.93
2022-09-06T07:32:20.056Z,17.99
2022-09-06T07:37:23.358Z,18.21
2022-09-06T07:42:25.364Z,18.60
2022-09-06T07:58:08.727Z,18.69
2022-09-06T08:03:10.624Z,18.84
2022-09-06T08:13:37.224Z,18.75
2022-09-06T08:18:39.351Z,19.12
2022-09-06T08:23:46.553Z,19.21
2022-09-06T08:28:48.653Z,19.37
2022-09-06T08:33:52.466Z,19.91
2022-09-06T08:38:56.188Z,20.48
2022-09-06T08:49:25.945Z,20.83
2022-09-06T08:54:37.283Z,20.46
2022-09-06T08:59:41.346Z,20.64
2022-09-06T09:04:46.898Z,20.23
2022-09-06T09:09:52.605Z,20.49
2022-09-06T09:15:02.179Z,20.74
2022-09-06T09:20:04.595Z,20.63
2022-09-06T09:25:16.200Z,20.52
2022-09-06T09:35:41.927Z,21.11
2022-09-06T09:40:52.718Z,20.77
2022-09-06T09:46:16.610Z,20.93
2022-09-06T09:51:26.954Z,20.74
2022-09-06T09:56:37.097Z,20.81
2022-09-06T10:01:39.012Z,20.99
2022-09-06T10:12:05.427Z,21.50
2022-09-06T10:17:07.470Z,21.11
2022-09-06T10:22:28.092Z,22.20
2022-09-06T10:27:31.975Z,24.66
2022-09-06T10:32:41.323Z,24.72
2022-09-06T10:38:03.039Z,26.36
2022-09-06T10:43:15.076Z,25.98
2022-09-06T10:48:21.373Z,25.11
2022-09-06T10:53:34.815Z,23.59
2022-09-06T11:04:12.721Z,23.13
2022-09-06T11:09:22.867Z,22.44
2022-09-06T11:14:28.543Z,22.39
2022-09-06T11:19:38.412Z,22.28
2022-09-06T11:24:58.671Z,22.26
2022-09-06T11:30:04.404Z,22.64
2022-09-06T11:35:08.346Z,22.86
2022-09-06T11:40:32.644Z,22.60
2022-09-06T11:45:44.771Z,22.70
2022-09-06T11:51:01.430Z,22.44
2022-09-06T11:56:25.408Z,22.52
2022-09-06T12:01:38.305Z,22.45
2022-09-06T12:06:42.349Z,22.50
2022-09-06T12:11:44.655Z,22.89
2022-09-06T12:17:26.541Z,23.02
2022-09-06T12:23:02.928Z,22.80
2022-09-06T12:28:09.605Z,23.04
2022-09-06T12:33:17.270Z,23.44
2022-09-06T12:38:25.126Z,23.46
2022-09-06T12:43:27.285Z,24.36
2022-09-06T12:48:31.954Z,24.30
2022-09-06T12:53:36.375Z,24.94
2022-09-06T12:58:38.548Z,25.04
2022-09-06T13:03:43.876Z,25.27
2022-09-06T13:08:49.656Z,25.63
2022-09-06T13:13:53.701Z,25.69
2022-09-06T13:19:10.399Z,25.87
2022-09-06T13:24:22.007Z,25.20
2022-09-06T13:29:26.187Z,25.07
2022-09-06T13:34:32.268Z,25.45
2022-09-06T13:39:38.016Z,25.12
2022-09-06T13:44:41.163Z,25.31
2022-09-06T13:49:43.297Z,25.25
2022-09-06T13:54:46.360Z,24.88
2022-09-06T13:59:48.098Z,24.90
2022-09-06T14:04:50.086Z,26.03
2022-09-06T14:09:53.738Z,25.82
2022-09-06T14:14:55.495Z,25.75
2022-09-06T14:19:57.770Z,25.60
2022-09-06T14:25:01.073Z,25.36
2022-09-06T14:30:03.820Z,25.30
2022-09-06T14:35:06.505Z,25.00
2022-09-06T14:40:10.790Z,24.38
2022-09-06T14:45:12.568Z,24.58
2022-09-06T14:50:14.321Z,24.23
2022-09-06T14:55:17.753Z,23.67
2022-09-06T15:00:19.820Z,23.49
2022-09-06T15:05:21.863Z,23.70
2022-09-06T15:10:25.198Z,23.74
2022-09-06T15:15:26.958Z,23.86
2022-09-06T15:20:30.015Z,24.15
2022-09-06T15:25:33.429Z,24.52
2022-09-06T15:30:38.063Z,24.65
2022-09-06T15:35:40.120Z,24.20
2022-09-06T15:40:43.623Z,24.38
2022-09-06T15:45:47.800Z,23.88
2022-09-06T15:50:51.539Z,23.47
2022-09-06T15:56:00.281Z,23.42
2022-09-06T16:01:05.931Z,23.53
2022-09-06T16:06:26.143Z,23.49
2022-09-06T16:11:31.395Z,23.29
2022-09-06T16:16:33.798Z,23.27
2022-09-06T16:21:38.006Z,23.14
2022-09-06T16:26:42.805Z,23.02
2022-09-06T16:31:45.602Z,22.97
2022-09-06T16:36:47.905Z,22.66
2022-09-06T16:41:51.042Z,22.56
2022-09-06T16:46:53.281Z,22.43
2022-09-06T16:51:55.479Z,22.29
2022-09-06T16:56:58.847Z,22.09
2022-09-06T17:02:01.210Z,22.00
2022-09-06T17:07:03.087Z,21.85
2022-09-06T17:12:07.015Z,21.78
2022-09-06T17:17:08.941Z,21.71
2022-09-06T17:22:12.655Z,21.63
2022-09-06T17:27:15.976Z,21.53
2022-09-06T17:32:17.777Z,21.44
2022-09-06T17:37:19.707Z,21.35
2022-09-06T17:42:23.143Z,21.26
2022-09-06T17:47:25.209Z,21.14
2022-09-06T17:52:27.338Z,21.08
2022-09-06T17:57:31.174Z,21.08
2022-09-06T18:02:32.872Z,21.01
2022-09-06T18:07:34.600Z,20.94
2022-09-06T18:12:38.326Z,20.81
2022-09-06T18:17:40.238Z,20.69
2022-09-06T18:22:42.216Z,20.52
2022-09-06T18:27:45.559Z,20.35
2022-09-06T18:32:47.771Z,20.36
2022-09-06T18:37:49.771Z,20.43
2022-09-06T18:42:52.967Z,20.54
2022-09-06T18:47:55.217Z,20.52
2022-09-06T18:52:56.926Z,20.55
2022-09-06T18:58:00.305Z,20.63
2022-09-06T19:03:02.088Z,20.57
2022-09-06T19:08:04.687Z,20.55
2022-09-06T19:13:08.405Z,20.43
2022-09-06T19:18:10.495Z,20.39
2022-09-06T19:23:12.468Z,20.29
2022-09-06T19:28:15.776Z,20.25
2022-09-06T19:33:18.772Z,20.16
2022-09-06T19:38:20.767Z,20.03
2022-09-06T19:43:24.023Z,19.96
2022-09-06T19:48:25.906Z,19.97
2022-09-06T19:53:28.284Z,19.93
2022-09-06T19:58:32.762Z,19.91
2022-09-06T20:03:36.183Z,19.88
2022-09-06T20:08:39.929Z,19.80
2022-09-06T20:13:44.606Z,19.77
2022-09-06T20:18:47.020Z,19.73
2022-09-06T20:23:49.826Z,19.74
2022-09-06T20:28:55.692Z,19.69
2022-09-06T20:34:01.656Z,19.60
2022-09-06T20:39:04.404Z,19.56
2022-09-06T20:44:07.838Z,19.51
2022-09-06T20:49:09.529Z,19.45
2022-09-06T20:54:11.525Z,19.34
2022-09-06T20:59:15.067Z,19.26
2022-09-06T21:04:18.043Z,19.18
2022-09-06T21:09:20.133Z,19.05
2022-09-06T21:14:23.624Z,18.97
2022-09-06T21:19:25.762Z,18.89
2022-09-06T21:24:27.811Z,18.81
2022-09-06T21:29:30.885Z,18.81
2022-09-06T21:34:32.922Z,18.74
2022-09-06T21:39:35.292Z,18.68
2022-09-06T21:44:38.404Z,18.68
2022-09-06T21:49:40.418Z,18.61
2022-09-06T21:54:42.474Z,18.53
2022-09-06T21:59:45.902Z,18.40
2022-09-06T22:04:47.947Z,18.31
2022-09-06T22:09:50.088Z,18.26
2022-09-06T22:14:53.507Z,18.12
2022-09-06T22:19:55.535Z,18.12
2022-09-06T22:24:57.538Z,18.00
2022-09-06T22:30:01.122Z,17.93
2022-09-06T22:35:03.807Z,17.83
2022-09-06T22:40:07.260Z,17.84
2022-09-06T22:45:11.269Z,17.85
2022-09-06T22:50:13.426Z,17.87
2022-09-06T22:55:15.343Z,17.80
2022-09-06T23:00:18.723Z,17.77
2022-09-06T23:05:21.256Z,17.73
2022-09-06T23:10:23.102Z,17.73
2022-09-06T23:15:26.584Z,17.72
2022-09-06T23:20:28.255Z,17.58
2022-09-06T23:25:30.561Z,17.51
2022-09-06T23:30:36.843Z,17.37
2022-09-06T23:35:38.601Z,17.24
2022-09-06T23:40:40.804Z,17.15
2022-09-06T23:45:44.371Z,16.95
2022-09-06T23:50:46.918Z,16.69
2022-09-06T23:55:48.976Z,16.47
